sensor_id;sensor_type;location;lat;lon;timestamp;temperature;humidity
780;DHT22;373;49.342;8.146;2023-08-12T02:08:45;22.60;1.00
780;DHT22;373;49.342;8.146;2023-08-12T02:11:12;22.60;1.00
780;DHT22;373;49.342;8.146;2023-08-12T02:13:39;22.50;99.90
780;DHT22;373;49.342;8.146;2023-08-12T02:16:06;22.40;1.00
780;DHT22;373;49.342;8.146;2023-08-12T02:18:34;22.50;1.00
780;DHT22;373;49.342;8.146;2023-08-12T02:21:02;22.70;90.70
780;DHT22;373;49.342;8.146;2023-08-12T02:23:29;23.00;99.90
780;DHT22;373;49.342;8.146;2023-08-12T02:25:57;23.10;99.90
780;DHT22;373;49.342;8.146;2023-08-12T02:28:26;22.90;99.90
780;DHT22;373;49.342;8.146;2023-08-12T02:30:53;23.00;1.00
780;DHT22;373;49.342;8.146;2023-08-12T02:33:20;22.70;1.00
780;DHT22;373;49.342;8.146;2023-08-12T02:35:47;22.60;99.90
780;DHT22;373;49.342;8.146;2023-08-12T02:38:14;22.50;99.90
780;DHT22;373;49.342;8.146;2023-08-12T02:40:42;22.50;1.00
780;DHT22;373;49.342;8.146;2023-08-12T02:43:11;22.50;99.90
780;DHT22;373;49.342;8.146;2023-08-12T02:45:38;22.60;99.90
780;DHT22;373;49.342;8.146;2023-08-12T02:48:06;22.70;99.90
780;DHT22;373;49.342;8.146;2023-08-12T02:50:35;22.90;21.90
780;DHT22;373;49.342;8.146;2023-08-12T02:53:02;23.00;1.00
780;DHT22;373;49.342;8.146;2023-08-12T02:55:32;23.00;24.80
780;DHT22;373;49.342;8.146;2023-08-12T02:57:59;23.00;99.90
780;DHT22;373;49.342;8.146;2023-08-12T03:00:28;22.90;99.90
780;DHT22;373;49.342;8.146;2023-08-12T03:02:57;22.90;99.90
780;DHT22;373;49.342;8.146;2023-08-12T03:05:24;23.00;1.00
780;DHT22;373;49.342;8.146;2023-08-12T03:07:51;23.00;99.90
780;DHT22;373;49.342;8.146;2023-08-12T03:10:19;23.00;99.90
780;DHT22;373;49.342;8.146;2023-08-12T03:12:46;23.00;1.00
780;DHT22;373;49.342;8.146;2023-08-12T03:15:14;23.00;99.90
780;DHT22;373;49.342;8.146;2023-08-12T03:17:45;23.10;99.90
780;DHT22;373;49.342;8.146;2023-08-12T03:20:12;23.00;99.90
780;DHT22;373;49.342;8.146;2023-08-12T03:22:39;22.80;1.00
780;DHT22;373;49.342;8.146;2023-08-12T03:25:08;22.70;1.00
780;DHT22;373;49.342;8.146;2023-08-12T03:27:35;22.60;1.00
780;DHT22;373;49.342;8.146;2023-08-12T03:30:03;22.50;1.00
780;DHT22;373;49.342;8.146;2023-08-12T03:32:31;22.40;1.00
780;DHT22;373;49.342;8.146;2023-08-12T03:35:01;22.40;1.00
780;DHT22;373;49.342;8.146;2023-08-12T03:37:30;22.60;1.00
780;DHT22;373;49.342;8.146;2023-08-12T03:39:57;22.70;1.00
780;DHT22;373;49.342;8.146;2023-08-12T03:42:24;22.70;1.00
780;DHT22;373;49.342;8.146;2023-08-12T03:44:51;22.60;1.00
780;DHT22;373;49.342;8.146;2023-08-12T03:47:19;22.50;1.00
780;DHT22;373;49.342;8.146;2023-08-12T03:49:50;22.30;1.00
780;DHT22;373;49.342;8.146;2023-08-12T03:52:18;22.30;1.00
780;DHT22;373;49.342;8.146;2023-08-12T03:54:45;22.30;1.00
780;DHT22;373;49.342;8.146;2023-08-12T03:57:13;22.20;1.00
780;DHT22;373;49.342;8.146;2023-08-12T03:59:41;22.20;1.00
780;DHT22;373;49.342;8.146;2023-08-12T04:02:08;22.20;1.00
780;DHT22;373;49.342;8.146;2023-08-12T04:04:35;22.30;1.00
780;DHT22;373;49.342;8.146;2023-08-12T04:07:02;22.40;1.00
780;DHT22;373;49.342;8.146;2023-08-12T04:09:31;22.70;1.00
780;DHT22;373;49.342;8.146;2023-08-12T04:11:58;22.80;1.00
780;DHT22;373;49.342;8.146;2023-08-12T04:14:25;23.10;99.90
780;DHT22;373;49.342;8.146;2023-08-12T04:16:52;23.20;1.00
780;DHT22;373;49.342;8.146;2023-08-12T04:19:19;23.20;99.90
780;DHT22;373;49.342;8.146;2023-08-12T04:21:46;23.10;99.90
780;DHT22;373;49.342;8.146;2023-08-12T04:24:13;23.00;90.40
780;DHT22;373;49.342;8.146;2023-08-12T04:26:42;22.80;99.90
780;DHT22;373;49.342;8.146;2023-08-12T04:29:09;22.90;99.90
780;DHT22;373;49.342;8.146;2023-08-12T04:31:40;23.00;99.90
780;DHT22;373;49.342;8.146;2023-08-12T04:34:07;23.30;83.60
780;DHT22;373;49.342;8.146;2023-08-12T04:36:34;23.20;1.00
780;DHT22;373;49.342;8.146;2023-08-12T04:39:04;23.20;1.00
780;DHT22;373;49.342;8.146;2023-08-12T04:41:34;23.30;99.90
780;DHT22;373;49.342;8.146;2023-08-12T04:44:05;23.50;66.70
780;DHT22;373;49.342;8.146;2023-08-12T04:46:32;23.70;34.10
780;DHT22;373;49.342;8.146;2023-08-12T04:48:59;23.90;99.90
780;DHT22;373;49.342;8.146;2023-08-12T04:51:26;23.70;1.00
780;DHT22;373;49.342;8.146;2023-08-12T04:53:53;23.70;1.00
780;DHT22;373;49.342;8.146;2023-08-12T04:56:20;23.60;99.90
780;DHT22;373;49.342;8.146;2023-08-12T04:58:47;23.50;99.90
780;DHT22;373;49.342;8.146;2023-08-12T05:01:17;23.40;1.00
780;DHT22;373;49.342;8.146;2023-08-12T05:03:44;23.50;99.90
780;DHT22;373;49.342;8.146;2023-08-12T05:06:11;23.90;1.00
780;DHT22;373;49.342;8.146;2023-08-12T05:08:38;24.10;1.00
780;DHT22;373;49.342;8.146;2023-08-12T05:11:05;24.20;1.00
780;DHT22;373;49.342;8.146;2023-08-12T05:13:34;24.00;99.90
780;DHT22;373;49.342;8.146;2023-08-12T05:16:01;24.20;99.90
780;DHT22;373;49.342;8.146;2023-08-12T05:18:30;24.30;1.00
780;DHT22;373;49.342;8.146;2023-08-12T05:20:57;24.70;1.00
780;DHT22;373;49.342;8.146;2023-08-12T05:23:24;24.90;99.90
780;DHT22;373;49.342;8.146;2023-08-12T05:25:52;24.90;99.90
780;DHT22;373;49.342;8.146;2023-08-12T05:28:19;25.00;1.00
780;DHT22;373;49.342;8.146;2023-08-12T05:30:46;25.30;99.90
780;DHT22;373;49.342;8.146;2023-08-12T05:33:13;25.50;1.00
780;DHT22;373;49.342;8.146;2023-08-12T05:35:41;25.60;1.00
780;DHT22;373;49.342;8.146;2023-08-12T05:38:08;25.60;1.00
780;DHT22;373;49.342;8.146;2023-08-12T05:40:35;25.70;1.00
780;DHT22;373;49.342;8.146;2023-08-12T05:43:03;26.20;99.90
780;DHT22;373;49.342;8.146;2023-08-12T05:45:30;26.40;99.90
780;DHT22;373;49.342;8.146;2023-08-12T05:47:57;26.30;99.90
780;DHT22;373;49.342;8.146;2023-08-12T05:50:24;26.60;99.90
780;DHT22;373;49.342;8.146;2023-08-12T05:52:53;26.70;99.90
780;DHT22;373;49.342;8.146;2023-08-12T05:55:20;26.30;99.90
780;DHT22;373;49.342;8.146;2023-08-12T05:57:47;26.30;1.00
780;DHT22;373;49.342;8.146;2023-08-12T06:00:14;26.80;99.90
780;DHT22;373;49.342;8.146;2023-08-12T06:02:41;27.00;1.00
780;DHT22;373;49.342;8.146;2023-08-12T06:05:08;26.60;91.20
780;DHT22;373;49.342;8.146;2023-08-12T06:07:36;26.60;99.90
780;DHT22;373;49.342;8.146;2023-08-12T06:10:05;26.70;99.90
780;DHT22;373;49.342;8.146;2023-08-12T06:12:32;27.20;1.00
780;DHT22;373;49.342;8.146;2023-08-12T06:14:59;27.30;1.00
780;DHT22;373;49.342;8.146;2023-08-12T06:17:27;27.70;1.00
780;DHT22;373;49.342;8.146;2023-08-12T06:19:54;28.00;1.00
780;DHT22;373;49.342;8.146;2023-08-12T06:22:21;28.10;1.00
780;DHT22;373;49.342;8.146;2023-08-12T06:24:49;27.90;1.00
780;DHT22;373;49.342;8.146;2023-08-12T06:27:17;27.00;1.00
780;DHT22;373;49.342;8.146;2023-08-12T06:29:46;26.90;1.00
780;DHT22;373;49.342;8.146;2023-08-12T06:32:13;26.10;99.90
780;DHT22;373;49.342;8.146;2023-08-12T06:34:40;26.20;99.90
780;DHT22;373;49.342;8.146;2023-08-12T06:37:08;26.30;99.90
780;DHT22;373;49.342;8.146;2023-08-12T06:39:35;26.20;99.90
780;DHT22;373;49.342;8.146;2023-08-12T06:42:02;26.10;99.90
780;DHT22;373;49.342;8.146;2023-08-12T06:44:31;25.50;99.90
780;DHT22;373;49.342;8.146;2023-08-12T06:46:58;25.30;1.00
780;DHT22;373;49.342;8.146;2023-08-12T06:49:25;25.00;1.00
780;DHT22;373;49.342;8.146;2023-08-12T06:51:52;24.90;99.90
780;DHT22;373;49.342;8.146;2023-08-12T06:54:20;24.90;9.40
780;DHT22;373;49.342;8.146;2023-08-12T06:56:51;24.90;1.00
780;DHT22;373;49.342;8.146;2023-08-12T06:59:18;24.90;1.00
780;DHT22;373;49.342;8.146;2023-08-12T07:01:47;25.10;99.90
780;DHT22;373;49.342;8.146;2023-08-12T07:04:14;25.30;99.90
780;DHT22;373;49.342;8.146;2023-08-12T07:06:41;25.10;1.00
780;DHT22;373;49.342;8.146;2023-08-12T07:09:08;24.80;99.90
780;DHT22;373;49.342;8.146;2023-08-12T07:11:35;24.90;14.50
780;DHT22;373;49.342;8.146;2023-08-12T07:14:02;25.00;1.00
780;DHT22;373;49.342;8.146;2023-08-12T07:16:29;24.80;1.00
780;DHT22;373;49.342;8.146;2023-08-12T07:18:59;24.60;99.90
780;DHT22;373;49.342;8.146;2023-08-12T07:21:32;24.80;1.00
780;DHT22;373;49.342;8.146;2023-08-12T07:23:59;24.60;1.00
780;DHT22;373;49.342;8.146;2023-08-12T07:26:26;24.60;99.90
780;DHT22;373;49.342;8.146;2023-08-12T07:28:54;24.90;70.00
780;DHT22;373;49.342;8.146;2023-08-12T07:31:21;25.60;1.00
780;DHT22;373;49.342;8.146;2023-08-12T07:33:48;26.00;99.90
780;DHT22;373;49.342;8.146;2023-08-12T07:36:17;26.20;1.00
780;DHT22;373;49.342;8.146;2023-08-12T07:38:44;26.00;99.90
780;DHT22;373;49.342;8.146;2023-08-12T07:41:11;26.30;1.00
780;DHT22;373;49.342;8.146;2023-08-12T07:43:38;26.70;1.00
780;DHT22;373;49.342;8.146;2023-08-12T07:46:05;26.90;99.90
780;DHT22;373;49.342;8.146;2023-08-12T07:48:32;27.00;99.90
780;DHT22;373;49.342;8.146;2023-08-12T07:50:59;27.20;62.70
780;DHT22;373;49.342;8.146;2023-08-12T07:53:28;27.40;1.00
780;DHT22;373;49.342;8.146;2023-08-12T07:55:55;27.60;1.00
780;DHT22;373;49.342;8.146;2023-08-12T07:58:22;27.40;64.40
780;DHT22;373;49.342;8.146;2023-08-12T08:00:52;27.80;1.00
780;DHT22;373;49.342;8.146;2023-08-12T08:03:19;27.80;1.00
780;DHT22;373;49.342;8.146;2023-08-12T08:05:46;28.60;1.00
780;DHT22;373;49.342;8.146;2023-08-12T08:08:14;28.90;1.00
780;DHT22;373;49.342;8.146;2023-08-12T08:10:42;29.10;1.00
780;DHT22;373;49.342;8.146;2023-08-12T08:13:09;29.50;99.90
780;DHT22;373;49.342;8.146;2023-08-12T08:15:36;29.30;99.90
780;DHT22;373;49.342;8.146;2023-08-12T08:18:03;29.10;99.90
780;DHT22;373;49.342;8.146;2023-08-12T08:20:31;28.80;99.90
780;DHT22;373;49.342;8.146;2023-08-12T08:22:58;28.60;99.90
780;DHT22;373;49.342;8.146;2023-08-12T08:25:25;28.70;99.90
780;DHT22;373;49.342;8.146;2023-08-12T08:27:54;28.50;99.90
780;DHT22;373;49.342;8.146;2023-08-12T08:30:21;28.90;99.90
780;DHT22;373;49.342;8.146;2023-08-12T08:32:50;29.10;99.90
780;DHT22;373;49.342;8.146;2023-08-12T08:35:17;28.80;99.90
780;DHT22;373;49.342;8.146;2023-08-12T08:37:44;28.60;99.90
780;DHT22;373;49.342;8.146;2023-08-12T08:40:11;28.90;99.90
780;DHT22;373;49.342;8.146;2023-08-12T08:42:39;28.70;99.90
780;DHT22;373;49.342;8.146;2023-08-12T08:45:12;28.30;1.00
780;DHT22;373;49.342;8.146;2023-08-12T08:47:41;28.00;99.90
780;DHT22;373;49.342;8.146;2023-08-12T08:50:09;27.60;1.00
780;DHT22;373;49.342;8.146;2023-08-12T08:52:37;27.50;99.90
780;DHT22;373;49.342;8.146;2023-08-12T08:55:05;28.20;56.40
780;DHT22;373;49.342;8.146;2023-08-12T08:57:32;28.90;36.70
780;DHT22;373;49.342;8.146;2023-08-12T08:59:59;28.90;1.00
780;DHT22;373;49.342;8.146;2023-08-12T09:02:29;28.20;1.00
780;DHT22;373;49.342;8.146;2023-08-12T09:04:57;28.20;82.30
780;DHT22;373;49.342;8.146;2023-08-12T09:07:24;28.90;1.00
780;DHT22;373;49.342;8.146;2023-08-12T09:09:52;29.30;1.00
780;DHT22;373;49.342;8.146;2023-08-12T09:12:21;28.70;1.00
780;DHT22;373;49.342;8.146;2023-08-12T09:14:49;28.60;1.00
780;DHT22;373;49.342;8.146;2023-08-12T09:17:16;28.60;1.00
780;DHT22;373;49.342;8.146;2023-08-12T09:19:44;28.70;1.00
780;DHT22;373;49.342;8.146;2023-08-12T09:22:12;28.50;1.00
780;DHT22;373;49.342;8.146;2023-08-12T09:24:39;28.70;1.00
780;DHT22;373;49.342;8.146;2023-08-12T09:27:06;29.00;1.00
780;DHT22;373;49.342;8.146;2023-08-12T09:29:34;29.50;1.00
780;DHT22;373;49.342;8.146;2023-08-12T09:32:06;28.90;99.90
780;DHT22;373;49.342;8.146;2023-08-12T09:34:34;28.80;1.00
780;DHT22;373;49.342;8.146;2023-08-12T09:37:03;28.60;1.00
780;DHT22;373;49.342;8.146;2023-08-12T09:39:30;28.70;1.00
780;DHT22;373;49.342;8.146;2023-08-12T09:41:57;28.80;1.00
780;DHT22;373;49.342;8.146;2023-08-12T09:44:25;28.60;1.00
780;DHT22;373;49.342;8.146;2023-08-12T09:46:56;28.60;1.00
780;DHT22;373;49.342;8.146;2023-08-12T09:49:24;28.40;1.00
780;DHT22;373;49.342;8.146;2023-08-12T09:51:51;28.70;1.00
780;DHT22;373;49.342;8.146;2023-08-12T09:54:21;28.90;1.00
780;DHT22;373;49.342;8.146;2023-08-12T09:56:54;28.70;1.00
780;DHT22;373;49.342;8.146;2023-08-12T09:59:26;28.90;99.90
780;DHT22;373;49.342;8.146;2023-08-12T10:01:54;29.10;99.90
780;DHT22;373;49.342;8.146;2023-08-12T10:04:23;29.40;99.90
780;DHT22;373;49.342;8.146;2023-08-12T10:06:58;29.40;99.90
780;DHT22;373;49.342;8.146;2023-08-12T10:09:28;29.70;99.90
780;DHT22;373;49.342;8.146;2023-08-12T10:11:56;29.60;99.90
780;DHT22;373;49.342;8.146;2023-08-12T10:14:23;29.00;99.90
780;DHT22;373;49.342;8.146;2023-08-12T10:16:52;28.80;1.00
780;DHT22;373;49.342;8.146;2023-08-12T10:19:21;28.90;1.00
780;DHT22;373;49.342;8.146;2023-08-12T10:21:54;29.10;1.00
780;DHT22;373;49.342;8.146;2023-08-12T10:24:23;28.90;1.00
780;DHT22;373;49.342;8.146;2023-08-12T10:26:54;28.70;1.00
780;DHT22;373;49.342;8.146;2023-08-12T10:29:23;28.50;1.00
780;DHT22;373;49.342;8.146;2023-08-12T10:31:51;28.40;1.00
780;DHT22;373;49.342;8.146;2023-08-12T10:34:28;28.40;1.00
780;DHT22;373;49.342;8.146;2023-08-12T10:37:10;28.70;1.00
780;DHT22;373;49.342;8.146;2023-08-12T10:39:38;28.80;1.00
780;DHT22;373;49.342;8.146;2023-08-12T10:42:07;28.60;1.00
780;DHT22;373;49.342;8.146;2023-08-12T10:44:39;28.60;1.00
780;DHT22;373;49.342;8.146;2023-08-12T10:47:08;28.40;1.00
780;DHT22;373;49.342;8.146;2023-08-12T10:49:38;28.10;1.00
780;DHT22;373;49.342;8.146;2023-08-12T10:52:05;28.00;1.00
780;DHT22;373;49.342;8.146;2023-08-12T10:54:46;28.10;67.40
780;DHT22;373;49.342;8.146;2023-08-12T10:57:14;28.20;65.90
780;DHT22;373;49.342;8.146;2023-08-12T10:59:52;27.60;99.90
780;DHT22;373;49.342;8.146;2023-08-12T11:02:20;27.20;1.00
780;DHT22;373;49.342;8.146;2023-08-12T11:04:55;26.80;99.90
780;DHT22;373;49.342;8.146;2023-08-12T11:07:32;26.10;1.00
780;DHT22;373;49.342;8.146;2023-08-12T11:10:04;24.80;1.00
780;DHT22;373;49.342;8.146;2023-08-12T11:12:35;24.30;99.90
780;DHT22;373;49.342;8.146;2023-08-12T11:15:03;24.40;32.60
780;DHT22;373;49.342;8.146;2023-08-12T11:17:47;23.90;99.90
780;DHT22;373;49.342;8.146;2023-08-12T11:21:04;23.80;99.90
780;DHT22;373;49.342;8.146;2023-08-12T11:24:56;23.90;99.90
780;DHT22;373;49.342;8.146;2023-08-12T11:27:25;23.90;99.90
780;DHT22;373;49.342;8.146;2023-08-12T11:29:53;23.80;99.90
780;DHT22;373;49.342;8.146;2023-08-12T11:32:28;23.60;99.90
780;DHT22;373;49.342;8.146;2023-08-12T11:35:01;23.70;99.90
780;DHT22;373;49.342;8.146;2023-08-12T11:37:41;24.00;99.90
780;DHT22;373;49.342;8.146;2023-08-12T11:40:23;24.50;99.90
780;DHT22;373;49.342;8.146;2023-08-12T11:44:24;24.80;99.90
780;DHT22;373;49.342;8.146;2023-08-12T11:47:04;25.20;99.90
780;DHT22;373;49.342;8.146;2023-08-12T11:49:35;25.40;50.80
780;DHT22;373;49.342;8.146;2023-08-12T11:52:11;25.30;72.00
780;DHT22;373;49.342;8.146;2023-08-12T11:54:40;25.40;99.90
780;DHT22;373;49.342;8.146;2023-08-12T11:57:16;25.60;43.30
780;DHT22;373;49.342;8.146;2023-08-12T11:59:57;25.30;72.50
780;DHT22;373;49.342;8.146;2023-08-12T12:02:27;25.20;99.90
780;DHT22;373;49.342;8.146;2023-08-12T12:04:57;25.00;99.90
780;DHT22;373;49.342;8.146;2023-08-12T12:07:32;25.50;87.40
780;DHT22;373;49.342;8.146;2023-08-12T12:10:05;25.60;59.10
780;DHT22;373;49.342;8.146;2023-08-12T12:12:33;25.90;34.30
780;DHT22;373;49.342;8.146;2023-08-12T12:15:02;25.70;38.00
780;DHT22;373;49.342;8.146;2023-08-12T12:17:38;25.70;74.60
780;DHT22;373;49.342;8.146;2023-08-12T12:20:09;25.80;90.20
780;DHT22;373;49.342;8.146;2023-08-12T12:22:41;25.60;89.60
780;DHT22;373;49.342;8.146;2023-08-12T12:25:35;25.50;75.50
780;DHT22;373;49.342;8.146;2023-08-12T12:28:03;25.70;99.90
780;DHT22;373;49.342;8.146;2023-08-12T12:34:35;26.00;1.00
780;DHT22;373;49.342;8.146;2023-08-12T12:37:02;26.20;1.00
780;DHT22;373;49.342;8.146;2023-08-12T12:39:42;26.40;1.00
780;DHT22;373;49.342;8.146;2023-08-12T12:42:14;25.90;1.00
780;DHT22;373;49.342;8.146;2023-08-12T12:45:50;26.10;1.00
780;DHT22;373;49.342;8.146;2023-08-12T15:03:46;27.80;99.90
780;DHT22;373;49.342;8.146;2023-08-12T15:06:13;27.50;1.00
780;DHT22;373;49.342;8.146;2023-08-12T15:08:41;27.50;1.00
780;DHT22;373;49.342;8.146;2023-08-12T15:11:09;27.30;99.90
780;DHT22;373;49.342;8.146;2023-08-12T15:13:36;27.40;99.90
780;DHT22;373;49.342;8.146;2023-08-12T15:16:03;27.70;1.00
780;DHT22;373;49.342;8.146;2023-08-12T15:18:55;27.90;1.00
780;DHT22;373;49.342;8.146;2023-08-12T15:21:33;28.10;1.00
780;DHT22;373;49.342;8.146;2023-08-12T15:24:50;28.10;1.00
780;DHT22;373;49.342;8.146;2023-08-12T15:27:21;27.60;1.00
780;DHT22;373;49.342;8.146;2023-08-12T15:29:49;27.60;1.00
780;DHT22;373;49.342;8.146;2023-08-12T15:32:22;27.90;1.00
780;DHT22;373;49.342;8.146;2023-08-12T15:34:55;28.10;99.90
780;DHT22;373;49.342;8.146;2023-08-12T15:37:23;28.40;10.60
780;DHT22;373;49.342;8.146;2023-08-12T15:39:50;28.70;99.90
780;DHT22;373;49.342;8.146;2023-08-12T15:42:17;28.60;99.90
780;DHT22;373;49.342;8.146;2023-08-12T15:44:44;29.00;99.90
780;DHT22;373;49.342;8.146;2023-08-12T15:47:16;28.60;99.90
780;DHT22;373;49.342;8.146;2023-08-12T15:49:44;28.20;1.00
780;DHT22;373;49.342;8.146;2023-08-12T15:52:13;27.80;99.90
780;DHT22;373;49.342;8.146;2023-08-12T15:54:40;27.70;1.00
780;DHT22;373;49.342;8.146;2023-08-12T15:57:17;27.70;99.90
780;DHT22;373;49.342;8.146;2023-08-12T15:59:46;27.50;1.00
780;DHT22;373;49.342;8.146;2023-08-12T16:02:13;27.50;99.90
780;DHT22;373;49.342;8.146;2023-08-12T16:04:46;27.30;1.00
780;DHT22;373;49.342;8.146;2023-08-12T16:07:38;27.50;1.00
780;DHT22;373;49.342;8.146;2023-08-12T16:10:12;27.60;99.90
780;DHT22;373;49.342;8.146;2023-08-12T16:12:42;27.60;99.90
780;DHT22;373;49.342;8.146;2023-08-12T16:15:09;27.40;99.90
780;DHT22;373;49.342;8.146;2023-08-12T16:17:37;27.40;1.00
780;DHT22;373;49.342;8.146;2023-08-12T16:20:08;27.40;1.00
780;DHT22;373;49.342;8.146;2023-08-12T16:22:38;27.30;1.00
780;DHT22;373;49.342;8.146;2023-08-12T16:25:10;27.30;99.90
780;DHT22;373;49.342;8.146;2023-08-12T16:27:37;27.10;1.00
780;DHT22;373;49.342;8.146;2023-08-12T16:30:06;27.10;99.90
780;DHT22;373;49.342;8.146;2023-08-12T16:32:37;27.00;99.90
780;DHT22;373;49.342;8.146;2023-08-12T16:35:06;27.10;1.00
780;DHT22;373;49.342;8.146;2023-08-12T16:37:34;26.90;99.90
780;DHT22;373;49.342;8.146;2023-08-12T16:40:03;26.80;1.00
780;DHT22;373;49.342;8.146;2023-08-12T16:42:32;26.70;19.20
780;DHT22;373;49.342;8.146;2023-08-12T16:44:59;26.60;1.00
780;DHT22;373;49.342;8.146;2023-08-12T16:47:30;26.80;1.00
780;DHT22;373;49.342;8.146;2023-08-12T16:49:57;26.60;1.00
780;DHT22;373;49.342;8.146;2023-08-12T16:52:25;26.50;1.00
780;DHT22;373;49.342;8.146;2023-08-12T16:54:52;26.50;99.90
780;DHT22;373;49.342;8.146;2023-08-12T19:38:53;23.30;95.50
780;DHT22;373;49.342;8.146;2023-08-12T19:41:20;23.00;99.90
780;DHT22;373;49.342;8.146;2023-08-12T19:43:48;22.80;99.90
780;DHT22;373;49.342;8.146;2023-08-12T19:46:15;22.70;99.90
780;DHT22;373;49.342;8.146;2023-08-12T19:48:52;22.70;99.90
780;DHT22;373;49.342;8.146;2023-08-12T19:51:19;22.90;99.90
780;DHT22;373;49.342;8.146;2023-08-12T19:53:47;23.10;99.90
780;DHT22;373;49.342;8.146;2023-08-12T19:56:17;23.10;99.90
780;DHT22;373;49.342;8.146;2023-08-12T19:58:45;23.20;99.90
780;DHT22;373;49.342;8.146;2023-08-12T20:01:18;23.00;99.90
780;DHT22;373;49.342;8.146;2023-08-12T20:03:46;22.80;99.90
780;DHT22;373;49.342;8.146;2023-08-12T20:06:13;22.90;99.90
780;DHT22;373;49.342;8.146;2023-08-12T20:08:40;23.10;99.90
780;DHT22;373;49.342;8.146;2023-08-12T20:11:16;23.00;99.90
780;DHT22;373;49.342;8.146;2023-08-12T20:13:44;22.70;99.90
780;DHT22;373;49.342;8.146;2023-08-12T20:16:13;22.80;99.90
780;DHT22;373;49.342;8.146;2023-08-12T20:18:41;23.10;93.40
780;DHT22;373;49.342;8.146;2023-08-12T20:21:08;23.20;68.90
780;DHT22;373;49.342;8.146;2023-08-12T20:23:37;23.60;10.60
780;DHT22;373;49.342;8.146;2023-08-12T20:26:05;23.80;1.00
780;DHT22;373;49.342;8.146;2023-08-12T20:28:36;23.80;2.20
780;DHT22;373;49.342;8.146;2023-08-12T20:31:04;24.00;1.00
780;DHT22;373;49.342;8.146;2023-08-12T20:33:31;24.00;1.00
780;DHT22;373;49.342;8.146;2023-08-12T20:35:58;24.00;1.00
780;DHT22;373;49.342;8.146;2023-08-12T20:38:25;24.10;1.00
780;DHT22;373;49.342;8.146;2023-08-12T20:40:52;24.10;1.00
780;DHT22;373;49.342;8.146;2023-08-12T20:43:19;23.70;1.00
780;DHT22;373;49.342;8.146;2023-08-12T20:45:48;23.60;1.00
780;DHT22;373;49.342;8.146;2023-08-12T20:48:15;23.40;1.00
780;DHT22;373;49.342;8.146;2023-08-12T20:50:42;23.30;1.00
780;DHT22;373;49.342;8.146;2023-08-12T20:53:10;23.30;1.00
780;DHT22;373;49.342;8.146;2023-08-12T20:55:37;23.60;1.00
780;DHT22;373;49.342;8.146;2023-08-12T20:58:04;23.70;1.00
780;DHT22;373;49.342;8.146;2023-08-12T21:00:31;23.90;1.00
780;DHT22;373;49.342;8.146;2023-08-12T21:03:00;24.10;1.00
780;DHT22;373;49.342;8.146;2023-08-12T21:05:27;23.80;1.00
780;DHT22;373;49.342;8.146;2023-08-12T21:07:54;23.50;1.00
780;DHT22;373;49.342;8.146;2023-08-12T21:10:21;23.40;14.70
780;DHT22;373;49.342;8.146;2023-08-12T21:12:49;23.30;20.90
780;DHT22;373;49.342;8.146;2023-08-12T21:15:16;23.40;1.00
780;DHT22;373;49.342;8.146;2023-08-12T21:17:43;23.60;1.00
780;DHT22;373;49.342;8.146;2023-08-12T21:20:12;23.60;1.00
780;DHT22;373;49.342;8.146;2023-08-12T21:22:41;23.80;1.00
780;DHT22;373;49.342;8.146;2023-08-12T21:25:09;23.90;1.00
780;DHT22;373;49.342;8.146;2023-08-12T21:27:36;23.70;1.00
780;DHT22;373;49.342;8.146;2023-08-12T21:30:04;23.80;1.00
780;DHT22;373;49.342;8.146;2023-08-12T21:32:31;23.60;1.00
780;DHT22;373;49.342;8.146;2023-08-12T21:34:58;23.60;1.00
780;DHT22;373;49.342;8.146;2023-08-12T21:37:27;23.80;1.00
780;DHT22;373;49.342;8.146;2023-08-12T21:39:55;24.10;1.00
780;DHT22;373;49.342;8.146;2023-08-12T21:42:22;24.10;1.00
780;DHT22;373;49.342;8.146;2023-08-12T21:44:49;24.20;1.00
780;DHT22;373;49.342;8.146;2023-08-12T21:47:16;23.70;1.00
780;DHT22;373;49.342;8.146;2023-08-12T21:49:44;23.90;1.00
780;DHT22;373;49.342;8.146;2023-08-12T21:52:11;23.70;1.00
780;DHT22;373;49.342;8.146;2023-08-12T21:54:41;23.40;1.00
780;DHT22;373;49.342;8.146;2023-08-12T21:57:08;23.20;9.30
780;DHT22;373;49.342;8.146;2023-08-12T21:59:36;23.20;11.20
780;DHT22;373;49.342;8.146;2023-08-12T22:02:03;23.20;1.00
780;DHT22;373;49.342;8.146;2023-08-12T22:04:31;23.30;1.20
780;DHT22;373;49.342;8.146;2023-08-12T22:06:59;23.40;1.00
780;DHT22;373;49.342;8.146;2023-08-12T22:09:26;23.50;1.00
780;DHT22;373;49.342;8.146;2023-08-12T22:11:56;23.70;1.00
780;DHT22;373;49.342;8.146;2023-08-12T22:14:23;23.90;1.00
780;DHT22;373;49.342;8.146;2023-08-12T22:16:50;24.00;1.00
780;DHT22;373;49.342;8.146;2023-08-12T22:19:18;24.10;1.00
780;DHT22;373;49.342;8.146;2023-08-12T22:21:45;24.00;1.00
780;DHT22;373;49.342;8.146;2023-08-12T22:24:12;24.20;1.00
780;DHT22;373;49.342;8.146;2023-08-12T22:26:39;23.90;1.00
780;DHT22;373;49.342;8.146;2023-08-12T22:29:07;23.90;1.00
780;DHT22;373;49.342;8.146;2023-08-12T22:31:34;23.90;1.00
780;DHT22;373;49.342;8.146;2023-08-12T22:34:01;23.60;1.00
780;DHT22;373;49.342;8.146;2023-08-12T22:36:30;23.50;1.00
780;DHT22;373;49.342;8.146;2023-08-12T22:38:57;23.30;1.00
780;DHT22;373;49.342;8.146;2023-08-12T22:41:24;23.00;1.00
780;DHT22;373;49.342;8.146;2023-08-12T22:43:51;22.80;1.00
780;DHT22;373;49.342;8.146;2023-08-12T22:46:20;22.50;1.70
780;DHT22;373;49.342;8.146;2023-08-12T22:48:47;22.30;40.40
780;DHT22;373;49.342;8.146;2023-08-12T22:51:14;22.50;28.00
780;DHT22;373;49.342;8.146;2023-08-12T22:53:41;22.60;16.40
780;DHT22;373;49.342;8.146;2023-08-12T22:56:08;22.60;12.90
780;DHT22;373;49.342;8.146;2023-08-12T22:58:35;22.70;22.50
780;DHT22;373;49.342;8.146;2023-08-12T23:01:02;23.00;1.00
780;DHT22;373;49.342;8.146;2023-08-12T23:03:32;23.10;1.00
780;DHT22;373;49.342;8.146;2023-08-12T23:05:59;23.20;1.00
780;DHT22;373;49.342;8.146;2023-08-12T23:08:29;23.20;1.00
780;DHT22;373;49.342;8.146;2023-08-12T23:10:56;23.30;1.00
780;DHT22;373;49.342;8.146;2023-08-12T23:13:23;23.50;1.00
780;DHT22;373;49.342;8.146;2023-08-12T23:15:50;23.50;1.00
780;DHT22;373;49.342;8.146;2023-08-12T23:18:17;23.40;1.00
780;DHT22;373;49.342;8.146;2023-08-12T23:20:46;23.30;1.00
780;DHT22;373;49.342;8.146;2023-08-12T23:23:13;23.50;1.00
780;DHT22;373;49.342;8.146;2023-08-12T23:25:41;23.60;1.00
780;DHT22;373;49.342;8.146;2023-08-12T23:28:08;23.70;1.00
780;DHT22;373;49.342;8.146;2023-08-12T23:30:35;23.60;1.00
780;DHT22;373;49.342;8.146;2023-08-12T23:33:03;23.70;1.00
780;DHT22;373;49.342;8.146;2023-08-12T23:35:31;23.70;1.00
780;DHT22;373;49.342;8.146;2023-08-12T23:38:00;23.70;1.00
780;DHT22;373;49.342;8.146;2023-08-12T23:40:28;23.60;1.00
780;DHT22;373;49.342;8.146;2023-08-12T23:42:55;23.70;1.00
780;DHT22;373;49.342;8.146;2023-08-12T23:45:22;23.60;1.00
780;DHT22;373;49.342;8.146;2023-08-12T23:47:49;23.60;1.00
780;DHT22;373;49.342;8.146;2023-08-12T23:50:16;23.70;1.00
780;DHT22;373;49.342;8.146;2023-08-12T23:52:43;23.60;1.00
780;DHT22;373;49.342;8.146;2023-08-12T23:55:12;23.40;1.00
780;DHT22;373;49.342;8.146;2023-08-12T23:57:39;23.40;1.00
